sensor_id;sensor_type;location;lat;lon;timestamp;pressure;altitude;pressure_sealevel;temperature;humidity
74161;BME280;62512;-46.434;168.382;2022-08-18T00:00:53;101025;;;unknown;82.67
74161;BME280;62512;-46.434;168.382;2022-08-18T00:01:57;101027;;;unknown;82.69
74161;BME280;62512;-46.434;168.382;2022-08-18T00:03:53;101018;;;unknown;82.75
74161;BME280;62512;-46.434;168.382;2022-08-18T00:05:53;101015;;;unknown;82.72
74161;BME280;62512;-46.434;168.382;2022-08-18T00:06:53;101015;;;unknown;82.72
74161;BME280;62512;-46.434;168.382;2022-08-18T00:07:54;101009;;;unknown;82.71
74161;BME280;62512;-46.434;168.382;2022-08-18T00:08:53;101009;;;unknown;82.71
74161;BME280;62512;-46.434;168.382;2022-08-18T00:09:53;101008;;;unknown;82.70
74161;BME280;62512;-46.434;168.382;2022-08-18T00:10:53;101010;;;unknown;82.69
74161;BME280;62512;-46.434;168.382;2022-08-18T00:11:53;101013;;;unknown;82.68
74161;BME280;62512;-46.434;168.382;2022-08-18T00:12:53;101013;;;unknown;82.68
74161;BME280;62512;-46.434;168.382;2022-08-18T00:13:53;101013;;;unknown;82.64
74161;BME280;62512;-46.434;168.382;2022-08-18T00:14:53;101009;;;unknown;82.60
74161;BME280;62512;-46.434;168.382;2022-08-18T00:15:53;101010;;;unknown;82.51
74161;BME280;62512;-46.434;168.382;2022-08-18T00:16:53;101009;;;unknown;82.49
74161;BME280;62512;-46.434;168.382;2022-08-18T00:17:53;101004;;;unknown;82.48
74161;BME280;62512;-46.434;168.382;2022-08-18T00:18:53;101004;;;unknown;82.46
74161;BME280;62512;-46.434;168.382;2022-08-18T00:19:53;101002;;;unknown;82.46
74161;BME280;62512;-46.434;168.382;2022-08-18T00:20:53;101001;;;unknown;82.44
74161;BME280;62512;-46.434;168.382;2022-08-18T00:22:53;101001;;;unknown;82.36
74161;BME280;62512;-46.434;168.382;2022-08-18T00:23:53;100999;;;unknown;82.33
74161;BME280;62512;-46.434;168.382;2022-08-18T00:24:54;101002;;;unknown;82.32
74161;BME280;62512;-46.434;168.382;2022-08-18T00:25:53;100997;;;unknown;82.33
74161;BME280;62512;-46.434;168.382;2022-08-18T00:26:53;100995;;;unknown;82.35
74161;BME280;62512;-46.434;168.382;2022-08-18T00:27:53;100998;;;unknown;82.35
74161;BME280;62512;-46.434;168.382;2022-08-18T00:28:53;101004;;;unknown;82.38
74161;BME280;62512;-46.434;168.382;2022-08-18T00:30:53;101007;;;unknown;82.26
74161;BME280;62512;-46.434;168.382;2022-08-18T00:31:53;101009;;;unknown;82.21
74161;BME280;62512;-46.434;168.382;2022-08-18T00:32:53;101008;;;unknown;82.18
74161;BME280;62512;-46.434;168.382;2022-08-18T00:33:53;101005;;;unknown;82.19
74161;BME280;62512;-46.434;168.382;2022-08-18T00:35:53;101004;;;unknown;82.14
74161;BME280;62512;-46.434;168.382;2022-08-18T00:36:53;100999;;;unknown;82.12
74161;BME280;62512;-46.434;168.382;2022-08-18T00:37:53;100995;;;unknown;82.16
74161;BME280;62512;-46.434;168.382;2022-08-18T00:38:53;100992;;;unknown;82.19
74161;BME280;62512;-46.434;168.382;2022-08-18T00:39:53;100984;;;unknown;82.25
74161;BME280;62512;-46.434;168.382;2022-08-18T00:40:54;100979;;;unknown;82.25
74161;BME280;62512;-46.434;168.382;2022-08-18T00:41:53;100974;;;unknown;82.19
74161;BME280;62512;-46.434;168.382;2022-08-18T00:42:53;100969;;;unknown;82.19
74161;BME280;62512;-46.434;168.382;2022-08-18T00:43:53;100962;;;unknown;82.09
74161;BME280;62512;-46.434;168.382;2022-08-18T00:44:53;100960;;;unknown;82.04
74161;BME280;62512;-46.434;168.382;2022-08-18T00:46:53;100942;;;unknown;81.95
74161;BME280;62512;-46.434;168.382;2022-08-18T00:49:53;100929;;;unknown;81.97
74161;BME280;62512;-46.434;168.382;2022-08-18T00:50:54;100926;;;unknown;82.04
74161;BME280;62512;-46.434;168.382;2022-08-18T00:51:53;100922;;;unknown;82.09
74161;BME280;62512;-46.434;168.382;2022-08-18T00:52:55;100925;;;unknown;82.02
74161;BME280;62512;-46.434;168.382;2022-08-18T00:53:55;100922;;;unknown;81.98
74161;BME280;62512;-46.434;168.382;2022-08-18T00:54:53;100919;;;unknown;81.92
74161;BME280;62512;-46.434;168.382;2022-08-18T00:55:53;100917;;;unknown;81.93
74161;BME280;62512;-46.434;168.382;2022-08-18T00:56:54;100912;;;unknown;81.98
74161;BME280;62512;-46.434;168.382;2022-08-18T00:57:54;100910;;;unknown;81.99
74161;BME280;62512;-46.434;168.382;2022-08-18T00:59:55;100902;;;unknown;82.02
74161;BME280;62512;-46.434;168.382;2022-08-18T01:01:53;100898;;;unknown;82.03
74161;BME280;62512;-46.434;168.382;2022-08-18T01:02:54;100895;;;unknown;82.06
74161;BME280;62512;-46.434;168.382;2022-08-18T01:03:55;100893;;;unknown;82.06
74161;BME280;62512;-46.434;168.382;2022-08-18T01:05:55;100885;;;unknown;81.95
74161;BME280;62512;-46.434;168.382;2022-08-18T01:06:53;100881;;;unknown;81.90
74161;BME280;62512;-46.434;168.382;2022-08-18T01:07:53;100876;;;unknown;81.97
74161;BME280;62512;-46.434;168.382;2022-08-18T01:08:53;100867;;;unknown;82.04
74161;BME280;62512;-46.434;168.382;2022-08-18T01:09:53;100861;;;unknown;82.06
74161;BME280;62512;-46.434;168.382;2022-08-18T01:10:53;100852;;;unknown;82.06
74161;BME280;62512;-46.434;168.382;2022-08-18T01:11:53;100847;;;unknown;82.04
74161;BME280;62512;-46.434;168.382;2022-08-18T01:12:53;100840;;;unknown;82.00
74161;BME280;62512;-46.434;168.382;2022-08-18T01:13:53;100837;;;unknown;81.92
74161;BME280;62512;-46.434;168.382;2022-08-18T01:14:53;100831;;;unknown;81.89
74161;BME280;62512;-46.434;168.382;2022-08-18T01:15:53;100826;;;unknown;81.94
74161;BME280;62512;-46.434;168.382;2022-08-18T01:18:53;100815;;;unknown;82.05
74161;BME280;62512;-46.434;168.382;2022-08-18T01:23:54;100800;;;unknown;82.05
74161;BME280;62512;-46.434;168.382;2022-08-18T01:26:53;100794;;;unknown;82.06
74161;BME280;62512;-46.434;168.382;2022-08-18T01:27:53;100793;;;unknown;82.06
74161;BME280;62512;-46.434;168.382;2022-08-18T01:29:53;100801;;;unknown;82.03
74161;BME280;62512;-46.434;168.382;2022-08-18T01:30:53;100804;;;unknown;82.02
74161;BME280;62512;-46.434;168.382;2022-08-18T01:31:53;100805;;;unknown;82.04
74161;BME280;62512;-46.434;168.382;2022-08-18T01:32:53;100807;;;unknown;82.04
74161;BME280;62512;-46.434;168.382;2022-08-18T01:35:53;100802;;;unknown;81.88
74161;BME280;62512;-46.434;168.382;2022-08-18T01:36:53;100804;;;unknown;81.92
74161;BME280;62512;-46.434;168.382;2022-08-18T01:37:53;100801;;;unknown;81.94
74161;BME280;62512;-46.434;168.382;2022-08-18T01:38:53;100802;;;unknown;81.96
74161;BME280;62512;-46.434;168.382;2022-08-18T01:39:53;100805;;;unknown;81.98
74161;BME280;62512;-46.434;168.382;2022-08-18T01:40:53;100805;;;unknown;81.93
74161;BME280;62512;-46.434;168.382;2022-08-18T01:41:53;100799;;;unknown;81.81
74161;BME280;62512;-46.434;168.382;2022-08-18T01:42:53;100796;;;unknown;81.75
74161;BME280;62512;-46.434;168.382;2022-08-18T01:43:53;100792;;;unknown;81.72
74161;BME280;62512;-46.434;168.382;2022-08-18T01:44:53;100792;;;unknown;81.73
74161;BME280;62512;-46.434;168.382;2022-08-18T01:45:53;100797;;;unknown;81.84
74161;BME280;62512;-46.434;168.382;2022-08-18T01:47:53;100794;;;unknown;81.90
74161;BME280;62512;-46.434;168.382;2022-08-18T01:49:53;100788;;;unknown;81.95
74161;BME280;62512;-46.434;168.382;2022-08-18T01:50:53;100790;;;unknown;81.90
74161;BME280;62512;-46.434;168.382;2022-08-18T01:51:53;100788;;;unknown;81.89
74161;BME280;62512;-46.434;168.382;2022-08-18T01:52:53;100787;;;unknown;81.94
74161;BME280;62512;-46.434;168.382;2022-08-18T01:53:53;100790;;;unknown;81.96
74161;BME280;62512;-46.434;168.382;2022-08-18T01:54:53;100790;;;unknown;82.04
74161;BME280;62512;-46.434;168.382;2022-08-18T01:56:53;100797;;;unknown;82.08
74161;BME280;62512;-46.434;168.382;2022-08-18T01:57:53;100797;;;unknown;82.11
74161;BME280;62512;-46.434;168.382;2022-08-18T02:00:53;100802;;;unknown;82.15
74161;BME280;62512;-46.434;168.382;2022-08-18T02:01:53;100801;;;unknown;82.11
74161;BME280;62512;-46.434;168.382;2022-08-18T02:02:53;100803;;;unknown;82.13
74161;BME280;62512;-46.434;168.382;2022-08-18T02:03:53;100807;;;unknown;82.20
74161;BME280;62512;-46.434;168.382;2022-08-18T02:04:53;100806;;;unknown;82.31
74161;BME280;62512;-46.434;168.382;2022-08-18T02:05:54;100807;;;unknown;82.44
74161;BME280;62512;-46.434;168.382;2022-08-18T02:06:53;100810;;;unknown;82.50
74161;BME280;62512;-46.434;168.382;2022-08-18T02:07:53;100806;;;unknown;82.56
74161;BME280;62512;-46.434;168.382;2022-08-18T02:08:53;100806;;;unknown;82.70
74161;BME280;62512;-46.434;168.382;2022-08-18T02:09:53;100806;;;unknown;82.70
74161;BME280;62512;-46.434;168.382;2022-08-18T02:12:53;100793;;;unknown;82.88
74161;BME280;62512;-46.434;168.382;2022-08-18T02:14:53;100791;;;unknown;82.93
74161;BME280;62512;-46.434;168.382;2022-08-18T02:15:54;100788;;;unknown;83.00
74161;BME280;62512;-46.434;168.382;2022-08-18T02:20:53;100776;;;unknown;83.24
74161;BME280;62512;-46.434;168.382;2022-08-18T02:22:53;100774;;;unknown;83.32
74161;BME280;62512;-46.434;168.382;2022-08-18T02:23:53;100770;;;unknown;83.31
74161;BME280;62512;-46.434;168.382;2022-08-18T02:24:53;100767;;;unknown;83.30
74161;BME280;62512;-46.434;168.382;2022-08-18T02:25:53;100763;;;unknown;83.31
74161;BME280;62512;-46.434;168.382;2022-08-18T02:26:53;100762;;;unknown;83.35
74161;BME280;62512;-46.434;168.382;2022-08-18T02:27:53;100759;;;unknown;83.36
74161;BME280;62512;-46.434;168.382;2022-08-18T02:28:53;100757;;;unknown;83.42
74161;BME280;62512;-46.434;168.382;2022-08-18T02:29:53;100751;;;unknown;83.48
74161;BME280;62512;-46.434;168.382;2022-08-18T02:32:53;100750;;;unknown;83.60
74161;BME280;62512;-46.434;168.382;2022-08-18T02:34:53;100744;;;unknown;83.72
74161;BME280;62512;-46.434;168.382;2022-08-18T02:37:53;100740;;;unknown;83.75
74161;BME280;62512;-46.434;168.382;2022-08-18T02:38:53;100735;;;unknown;83.80
74161;BME280;62512;-46.434;168.382;2022-08-18T02:39:53;100734;;;unknown;83.80
74161;BME280;62512;-46.434;168.382;2022-08-18T02:43:53;100717;;;unknown;83.86
74161;BME280;62512;-46.434;168.382;2022-08-18T02:45:53;100716;;;unknown;83.92
74161;BME280;62512;-46.434;168.382;2022-08-18T02:46:53;100712;;;unknown;83.93
74161;BME280;62512;-46.434;168.382;2022-08-18T02:48:53;100705;;;unknown;83.96
74161;BME280;62512;-46.434;168.382;2022-08-18T02:49:53;100698;;;unknown;83.95
74161;BME280;62512;-46.434;168.382;2022-08-18T02:50:58;100696;;;unknown;83.93
74161;BME280;62512;-46.434;168.382;2022-08-18T02:51:53;100690;;;unknown;83.97
74161;BME280;62512;-46.434;168.382;2022-08-18T02:52:53;100690;;;unknown;84.06
74161;BME280;62512;-46.434;168.382;2022-08-18T02:53:53;100690;;;unknown;84.06
74161;BME280;62512;-46.434;168.382;2022-08-18T02:54:53;100695;;;unknown;84.04
74161;BME280;62512;-46.434;168.382;2022-08-18T02:55:53;100691;;;unknown;84.10
74161;BME280;62512;-46.434;168.382;2022-08-18T02:56:53;100692;;;unknown;84.14
74161;BME280;62512;-46.434;168.382;2022-08-18T02:57:53;100688;;;unknown;84.11
74161;BME280;62512;-46.434;168.382;2022-08-18T02:58:53;100685;;;unknown;84.17
74161;BME280;62512;-46.434;168.382;2022-08-18T02:59:53;100683;;;unknown;84.25
74161;BME280;62512;-46.434;168.382;2022-08-18T03:00:53;100683;;;unknown;84.30
74161;BME280;62512;-46.434;168.382;2022-08-18T03:01:54;100681;;;unknown;84.35
74161;BME280;62512;-46.434;168.382;2022-08-18T03:04:53;100692;;;unknown;84.59
74161;BME280;62512;-46.434;168.382;2022-08-18T03:06:53;100696;;;unknown;84.69
74161;BME280;62512;-46.434;168.382;2022-08-18T03:09:53;100698;;;unknown;84.76
74161;BME280;62512;-46.434;168.382;2022-08-18T03:10:53;100696;;;unknown;84.79
74161;BME280;62512;-46.434;168.382;2022-08-18T03:12:53;100692;;;unknown;84.87
74161;BME280;62512;-46.434;168.382;2022-08-18T03:13:53;100693;;;unknown;84.86
74161;BME280;62512;-46.434;168.382;2022-08-18T03:18:53;100697;;;unknown;85.10
74161;BME280;62512;-46.434;168.382;2022-08-18T03:21:53;100696;;;unknown;85.13
74161;BME280;62512;-46.434;168.382;2022-08-18T03:22:53;100694;;;unknown;85.15
74161;BME280;62512;-46.434;168.382;2022-08-18T03:23:54;100695;;;unknown;85.15
74161;BME280;62512;-46.434;168.382;2022-08-18T03:25:53;100692;;;unknown;85.16
74161;BME280;62512;-46.434;168.382;2022-08-18T03:26:53;100689;;;unknown;85.18
74161;BME280;62512;-46.434;168.382;2022-08-18T03:27:53;100688;;;unknown;85.17
74161;BME280;62512;-46.434;168.382;2022-08-18T03:29:53;100683;;;unknown;85.25
74161;BME280;62512;-46.434;168.382;2022-08-18T03:30:53;100680;;;unknown;85.26
74161;BME280;62512;-46.434;168.382;2022-08-18T03:31:53;100675;;;unknown;85.29
74161;BME280;62512;-46.434;168.382;2022-08-18T03:32:53;100674;;;unknown;85.31
74161;BME280;62512;-46.434;168.382;2022-08-18T03:36:53;100678;;;unknown;85.51
74161;BME280;62512;-46.434;168.382;2022-08-18T03:39:53;100674;;;unknown;85.50
74161;BME280;62512;-46.434;168.382;2022-08-18T03:40:53;100676;;;unknown;85.56
74161;BME280;62512;-46.434;168.382;2022-08-18T03:41:53;100671;;;unknown;85.63
74161;BME280;62512;-46.434;168.382;2022-08-18T03:42:53;100667;;;unknown;85.63
74161;BME280;62512;-46.434;168.382;2022-08-18T03:44:53;100665;;;unknown;85.64
74161;BME280;62512;-46.434;168.382;2022-08-18T03:45:53;100663;;;unknown;85.65
74161;BME280;62512;-46.434;168.382;2022-08-18T03:46:53;100661;;;unknown;85.64
74161;BME280;62512;-46.434;168.382;2022-08-18T03:47:53;100661;;;unknown;85.62
74161;BME280;62512;-46.434;168.382;2022-08-18T03:48:55;100660;;;unknown;85.61
74161;BME280;62512;-46.434;168.382;2022-08-18T03:49:53;100660;;;unknown;85.61
74161;BME280;62512;-46.434;168.382;2022-08-18T03:50:53;100657;;;unknown;85.61
74161;BME280;62512;-46.434;168.382;2022-08-18T03:51:53;100658;;;unknown;85.61
74161;BME280;62512;-46.434;168.382;2022-08-18T03:52:53;100658;;;unknown;85.59
74161;BME280;62512;-46.434;168.382;2022-08-18T03:53:54;100657;;;unknown;85.54
74161;BME280;62512;-46.434;168.382;2022-08-18T03:54:53;100657;;;unknown;85.54
74161;BME280;62512;-46.434;168.382;2022-08-18T03:56:53;100652;;;unknown;85.46
74161;BME280;62512;-46.434;168.382;2022-08-18T03:57:56;100651;;;unknown;85.48
74161;BME280;62512;-46.434;168.382;2022-08-18T03:59:53;100653;;;unknown;85.50
74161;BME280;62512;-46.434;168.382;2022-08-18T04:00:53;100647;;;unknown;85.50
74161;BME280;62512;-46.434;168.382;2022-08-18T04:02:53;100647;;;unknown;85.46
74161;BME280;62512;-46.434;168.382;2022-08-18T04:11:53;100620;;;unknown;85.34
74161;BME280;62512;-46.434;168.382;2022-08-18T04:12:53;100616;;;unknown;85.37
74161;BME280;62512;-46.434;168.382;2022-08-18T04:14:53;100606;;;unknown;85.42
74161;BME280;62512;-46.434;168.382;2022-08-18T04:15:53;100603;;;unknown;85.38
74161;BME280;62512;-46.434;168.382;2022-08-18T04:16:53;100607;;;unknown;85.37
74161;BME280;62512;-46.434;168.382;2022-08-18T04:17:53;100604;;;unknown;85.36
74161;BME280;62512;-46.434;168.382;2022-08-18T04:18:53;100605;;;unknown;85.43
74161;BME280;62512;-46.434;168.382;2022-08-18T04:19:53;100602;;;unknown;85.55
74161;BME280;62512;-46.434;168.382;2022-08-18T04:20:53;100601;;;unknown;85.60
74161;BME280;62512;-46.434;168.382;2022-08-18T04:21:53;100598;;;unknown;85.71
74161;BME280;62512;-46.434;168.382;2022-08-18T04:26:54;100600;;;unknown;85.69
74161;BME280;62512;-46.434;168.382;2022-08-18T04:29:53;100604;;;unknown;85.72
74161;BME280;62512;-46.434;168.382;2022-08-18T04:30:53;100608;;;unknown;85.78
74161;BME280;62512;-46.434;168.382;2022-08-18T04:31:53;100606;;;unknown;85.79
74161;BME280;62512;-46.434;168.382;2022-08-18T04:34:53;100600;;;unknown;85.74
74161;BME280;62512;-46.434;168.382;2022-08-18T04:35:53;100601;;;unknown;85.64
74161;BME280;62512;-46.434;168.382;2022-08-18T04:36:53;100598;;;unknown;85.67
74161;BME280;62512;-46.434;168.382;2022-08-18T04:37:53;100595;;;unknown;85.61
74161;BME280;62512;-46.434;168.382;2022-08-18T04:38:53;100596;;;unknown;85.67
74161;BME280;62512;-46.434;168.382;2022-08-18T04:39:53;100597;;;unknown;85.69
74161;BME280;62512;-46.434;168.382;2022-08-18T04:40:53;100597;;;unknown;85.69
74161;BME280;62512;-46.434;168.382;2022-08-18T04:41:53;100595;;;unknown;85.64
74161;BME280;62512;-46.434;168.382;2022-08-18T04:42:53;100593;;;unknown;85.63
74161;BME280;62512;-46.434;168.382;2022-08-18T04:43:53;100593;;;unknown;85.63
74161;BME280;62512;-46.434;168.382;2022-08-18T04:44:53;100590;;;unknown;85.66
74161;BME280;62512;-46.434;168.382;2022-08-18T04:45:53;100587;;;unknown;85.67
74161;BME280;62512;-46.434;168.382;2022-08-18T04:46:53;100585;;;unknown;85.68
74161;BME280;62512;-46.434;168.382;2022-08-18T04:47:53;100586;;;unknown;85.72
74161;BME280;62512;-46.434;168.382;2022-08-18T04:48:53;100585;;;unknown;85.70
74161;BME280;62512;-46.434;168.382;2022-08-18T04:49:53;100585;;;unknown;85.70
74161;BME280;62512;-46.434;168.382;2022-08-18T04:50:53;100589;;;unknown;85.67
74161;BME280;62512;-46.434;168.382;2022-08-18T04:51:53;100589;;;unknown;85.70
74161;BME280;62512;-46.434;168.382;2022-08-18T04:52:53;100598;;;unknown;85.72
74161;BME280;62512;-46.434;168.382;2022-08-18T04:53:53;100600;;;unknown;85.63
74161;BME280;62512;-46.434;168.382;2022-08-18T04:54:53;100602;;;unknown;85.69
74161;BME280;62512;-46.434;168.382;2022-08-18T04:55:53;100606;;;unknown;85.72
74161;BME280;62512;-46.434;168.382;2022-08-18T04:57:53;100611;;;unknown;85.81
74161;BME280;62512;-46.434;168.382;2022-08-18T04:58:53;100608;;;unknown;85.84
74161;BME280;62512;-46.434;168.382;2022-08-18T05:00:56;100606;;;unknown;85.87
74161;BME280;62512;-46.434;168.382;2022-08-18T05:02:53;100600;;;unknown;85.87
74161;BME280;62512;-46.434;168.382;2022-08-18T05:04:53;100591;;;unknown;85.84
74161;BME280;62512;-46.434;168.382;2022-08-18T05:05:53;100586;;;unknown;85.84
74161;BME280;62512;-46.434;168.382;2022-08-18T05:06:53;100577;;;unknown;85.85
74161;BME280;62512;-46.434;168.382;2022-08-18T05:08:53;100575;;;unknown;85.85
74161;BME280;62512;-46.434;168.382;2022-08-18T05:09:53;100574;;;unknown;85.84
74161;BME280;62512;-46.434;168.382;2022-08-18T05:12:53;100553;;;unknown;85.65
74161;BME280;62512;-46.434;168.382;2022-08-18T05:13:54;100553;;;unknown;85.65
74161;BME280;62512;-46.434;168.382;2022-08-18T05:14:53;100551;;;unknown;85.66
74161;BME280;62512;-46.434;168.382;2022-08-18T05:15:53;100546;;;unknown;85.71
74161;BME280;62512;-46.434;168.382;2022-08-18T05:16:53;100543;;;unknown;85.68
74161;BME280;62512;-46.434;168.382;2022-08-18T05:17:53;100534;;;unknown;85.69
74161;BME280;62512;-46.434;168.382;2022-08-18T05:18:53;100534;;;unknown;85.73
74161;BME280;62512;-46.434;168.382;2022-08-18T05:19:53;100528;;;unknown;85.78
74161;BME280;62512;-46.434;168.382;2022-08-18T05:20:54;100525;;;unknown;85.84
74161;BME280;62512;-46.434;168.382;2022-08-18T05:21:53;100525;;;unknown;85.94
74161;BME280;62512;-46.434;168.382;2022-08-18T05:22:53;100518;;;unknown;86.02
74161;BME280;62512;-46.434;168.382;2022-08-18T05:23:53;100514;;;unknown;86.09
74161;BME280;62512;-46.434;168.382;2022-08-18T05:24:53;100508;;;unknown;86.21
74161;BME280;62512;-46.434;168.382;2022-08-18T05:25:56;100502;;;unknown;86.32
74161;BME280;62512;-46.434;168.382;2022-08-18T05:26:53;100492;;;unknown;86.44
74161;BME280;62512;-46.434;168.382;2022-08-18T05:27:53;100482;;;unknown;86.55
74161;BME280;62512;-46.434;168.382;2022-08-18T05:28:53;100487;;;unknown;86.57
74161;BME280;62512;-46.434;168.382;2022-08-18T05:29:53;100481;;;unknown;86.62
74161;BME280;62512;-46.434;168.382;2022-08-18T05:30:53;100490;;;unknown;86.70
74161;BME280;62512;-46.434;168.382;2022-08-18T05:32:53;100492;;;unknown;86.81
74161;BME280;62512;-46.434;168.382;2022-08-18T05:33:53;100493;;;unknown;86.87
74161;BME280;62512;-46.434;168.382;2022-08-18T05:34:53;100493;;;unknown;86.87
74161;BME280;62512;-46.434;168.382;2022-08-18T05:36:56;100491;;;unknown;86.95
74161;BME280;62512;-46.434;168.382;2022-08-18T05:37:58;100497;;;unknown;86.98
74161;BME280;62512;-46.434;168.382;2022-08-18T05:38:57;100499;;;unknown;87.03
74161;BME280;62512;-46.434;168.382;2022-08-18T05:39:55;100508;;;unknown;87.05
74161;BME280;62512;-46.434;168.382;2022-08-18T05:40:56;100516;;;unknown;87.05
74161;BME280;62512;-46.434;168.382;2022-08-18T05:41:54;100530;;;unknown;87.04
74161;BME280;62512;-46.434;168.382;2022-08-18T05:42:53;100538;;;unknown;87.03
74161;BME280;62512;-46.434;168.382;2022-08-18T05:43:53;100542;;;unknown;87.01
74161;BME280;62512;-46.434;168.382;2022-08-18T05:44:53;100543;;;unknown;86.98
74161;BME280;62512;-46.434;168.382;2022-08-18T05:45:52;100550;;;unknown;86.98
74161;BME280;62512;-46.434;168.382;2022-08-18T05:46:53;100548;;;unknown;86.96
74161;BME280;62512;-46.434;168.382;2022-08-18T05:47:54;100540;;;unknown;86.93
74161;BME280;62512;-46.434;168.382;2022-08-18T05:48:53;100532;;;unknown;86.93
74161;BME280;62512;-46.434;168.382;2022-08-18T05:49:53;100521;;;unknown;86.92
74161;BME280;62512;-46.434;168.382;2022-08-18T05:50:53;100519;;;unknown;86.90
74161;BME280;62512;-46.434;168.382;2022-08-18T05:51:53;100511;;;unknown;86.85
74161;BME280;62512;-46.434;168.382;2022-08-18T05:52:54;100510;;;unknown;86.81
74161;BME280;62512;-46.434;168.382;2022-08-18T05:54:54;100502;;;unknown;86.71
74161;BME280;62512;-46.434;168.382;2022-08-18T05:56:54;100498;;;unknown;86.64
74161;BME280;62512;-46.434;168.382;2022-08-18T05:57:53;100504;;;unknown;86.59
74161;BME280;62512;-46.434;168.382;2022-08-18T06:01:56;100515;;;unknown;86.53
74161;BME280;62512;-46.434;168.382;2022-08-18T06:02:54;100518;;;unknown;86.54
74161;BME280;62512;-46.434;168.382;2022-08-18T06:03:53;100518;;;unknown;86.57
74161;BME280;62512;-46.434;168.382;2022-08-18T06:04:53;100521;;;unknown;86.60
74161;BME280;62512;-46.434;168.382;2022-08-18T06:05:53;100520;;;unknown;86.59
74161;BME280;62512;-46.434;168.382;2022-08-18T06:06:53;100518;;;unknown;86.57
74161;BME280;62512;-46.434;168.382;2022-08-18T06:07:53;100514;;;unknown;86.54
74161;BME280;62512;-46.434;168.382;2022-08-18T06:08:55;100516;;;unknown;86.50
74161;BME280;62512;-46.434;168.382;2022-08-18T06:10:53;100521;;;unknown;86.36
74161;BME280;62512;-46.434;168.382;2022-08-18T06:12:54;100520;;;unknown;86.30
74161;BME280;62512;-46.434;168.382;2022-08-18T06:17:56;100528;;;unknown;86.20
74161;BME280;62512;-46.434;168.382;2022-08-18T06:19:55;100534;;;unknown;86.21
74161;BME280;62512;-46.434;168.382;2022-08-18T06:21:12;100536;;;unknown;86.20
74161;BME280;62512;-46.434;168.382;2022-08-18T06:25:56;100531;;;unknown;86.05
74161;BME280;62512;-46.434;168.382;2022-08-18T06:26:54;100525;;;unknown;86.04
74161;BME280;62512;-46.434;168.382;2022-08-18T06:33:00;100528;;;unknown;86.09
74161;BME280;62512;-46.434;168.382;2022-08-18T06:34:57;100525;;;unknown;86.11
74161;BME280;62512;-46.434;168.382;2022-08-18T06:36:54;100527;;;unknown;86.11
74161;BME280;62512;-46.434;168.382;2022-08-18T06:38:56;100524;;;unknown;86.09
74161;BME280;62512;-46.434;168.382;2022-08-18T06:41:00;100518;;;unknown;86.08
74161;BME280;62512;-46.434;168.382;2022-08-18T06:42:53;100513;;;unknown;86.11
74161;BME280;62512;-46.434;168.382;2022-08-18T06:43:55;100512;;;unknown;86.13
74161;BME280;62512;-46.434;168.382;2022-08-18T06:45:52;100511;;;unknown;86.20
74161;BME280;62512;-46.434;168.382;2022-08-18T06:47:53;100512;;;unknown;86.18
74161;BME280;62512;-46.434;168.382;2022-08-18T06:48:53;100519;;;unknown;86.17
74161;BME280;62512;-46.434;168.382;2022-08-18T06:50:54;100527;;;unknown;86.17
74161;BME280;62512;-46.434;168.382;2022-08-18T06:51:52;100526;;;unknown;86.16
74161;BME280;62512;-46.434;168.382;2022-08-18T06:52:53;100535;;;unknown;86.14
74161;BME280;62512;-46.434;168.382;2022-08-18T06:53:55;100536;;;unknown;86.13
74161;BME280;62512;-46.434;168.382;2022-08-18T06:54:53;100540;;;unknown;86.14
74161;BME280;62512;-46.434;168.382;2022-08-18T06:57:54;100547;;;unknown;86.22
74161;BME280;62512;-46.434;168.382;2022-08-18T06:59:55;100544;;;unknown;86.21
74161;BME280;62512;-46.434;168.382;2022-08-18T07:00:55;100541;;;unknown;86.24
74161;BME280;62512;-46.434;168.382;2022-08-18T07:02:53;100545;;;unknown;86.30
74161;BME280;62512;-46.434;168.382;2022-08-18T07:03:53;100547;;;unknown;86.32
74161;BME280;62512;-46.434;168.382;2022-08-18T07:05:00;100544;;;unknown;86.34
74161;BME280;62512;-46.434;168.382;2022-08-18T07:06:52;100551;;;unknown;86.39
74161;BME280;62512;-46.434;168.382;2022-08-18T07:12:02;100556;;;unknown;86.59
74161;BME280;62512;-46.434;168.382;2022-08-18T07:12:53;100558;;;unknown;86.58
74161;BME280;62512;-46.434;168.382;2022-08-18T07:13:53;100562;;;unknown;86.54
74161;BME280;62512;-46.434;168.382;2022-08-18T07:19:57;100573;;;unknown;86.68
74161;BME280;62512;-46.434;168.382;2022-08-18T07:20:53;100576;;;unknown;86.67
74161;BME280;62512;-46.434;168.382;2022-08-18T07:21:59;100574;;;unknown;86.64
74161;BME280;62512;-46.434;168.382;2022-08-18T07:22:54;100575;;;unknown;86.61